Time;durP1;ratioP1;P1;durP2;ratioP2;P2;SDS_P1;SDS_P2;PMS_P1;PMS_P2;Temp;Humidity;BMP_temperature;BMP_pressure;BME280_temperature;BME280_humidity;BME280_pressure;Samples;Min_cycle;Max_cycle;Signal;HPM_P1;HPM_P2
2022/10/03 00:01:34;;;;;;;4.80;2.40;;;;;;;8.84;76.18;97898.67;1781855;80;21550;-44
2022/10/03 00:04:27;;;;;;;3.17;1.65;;;;;;;8.85;76.26;97902.93;1781784;80;22154;-45
2022/10/03 00:07:16;;;;;;;4.00;3.05;;;;;;;8.83;76.57;97904.66;1770926;80;20990;-45
2022/10/03 00:09:58;;;;;;;3.35;1.65;;;;;;;8.77;76.70;97909.45;1781509;80;21060;-45
2022/10/03 00:12:52;;;;;;;2.98;1.77;;;;;;;8.76;76.88;97899.82;1781995;80;21806;-45
2022/10/03 00:15:46;;;;;;;3.17;2.17;;;;;;;8.80;77.00;97893.27;1782012;80;21601;-45
2022/10/03 00:18:40;;;;;;;3.42;2.30;;;;;;;8.79;77.05;97897.13;1782099;80;21071;-45
2022/10/03 00:21:19;;;;;;;5.40;2.30;;;;;;;8.75;77.32;97900.40;1782070;80;21672;-45
2022/10/03 00:24:00;;;;;;;2.58;2.20;;;;;;;8.78;77.37;97891.52;1782095;80;21084;-45
2022/10/03 00:26:50;;;;;;;3.95;2.27;;;;;;;8.78;77.49;97888.81;1782242;80;21206;-45
2022/10/03 00:29:23;;;;;;;3.58;2.55;;;;;;;8.76;77.59;97884.39;1744740;82;21025;-45
2022/10/03 00:32:18;;;;;;;3.27;2.25;;;;;;;8.70;77.77;97877.80;1781916;80;20969;-45
2022/10/03 00:35:11;;;;;;;2.52;2.33;;;;;;;8.69;78.04;97878.95;1744724;82;20965;-44
2022/10/03 00:38:04;;;;;;;2.77;2.50;;;;;;;8.74;78.22;97873.17;1782021;80;21040;-45
2022/10/03 00:41:12;;;;;;;2.95;1.95;;;;;;;8.75;78.44;97868.55;1739151;80;21153;-45
2022/10/03 00:44:04;;;;;;;2.40;2.20;;;;;;;8.72;78.67;97874.13;1735615;80;21087;-45
2022/10/03 00:46:49;;;;;;;3.72;1.92;;;;;;;8.73;78.78;97875.67;1781846;80;20988;-45
2022/10/03 00:49:33;;;;;;;5.55;2.40;;;;;;;8.77;78.90;97875.67;1780998;80;21016;-45
2022/10/03 00:52:15;;;;;;;5.05;2.45;;;;;;;8.76;79.10;97867.40;1781207;80;20990;-45
2022/10/03 00:54:57;;;;;;;4.08;1.65;;;;;;;8.73;79.33;97868.92;1781891;80;22139;-45
2022/10/03 00:57:58;;;;;;;2.02;1.80;;;;;;;8.71;79.50;97859.09;1749335;80;20960;-45
2022/10/03 01:00:31;;;;;;;2.80;2.50;;;;;;;8.77;79.42;97857.53;1781963;80;20960;-45
2022/10/03 01:03:20;;;;;;;2.35;2.15;;;;;;;8.75;79.36;97853.11;1781978;80;21523;-45
2022/10/03 01:06:19;;;;;;;2.90;2.30;;;;;;;8.73;79.54;97850.02;1782213;80;21032;-45
2022/10/03 01:09:09;;;;;;;2.47;2.00;;;;;;;8.72;79.70;97843.05;1744354;82;23125;-45
2022/10/03 01:11:52;;;;;;;3.00;2.30;;;;;;;8.75;79.67;97840.95;1781900;80;20977;-45
2022/10/03 01:14:40;;;;;;;2.47;2.20;;;;;;;8.73;79.69;97840.55;1781882;80;20959;-45
2022/10/03 01:17:42;;;;;;;2.95;2.33;;;;;;;8.76;79.55;97839.03;1781816;80;21632;-45
2022/10/03 01:20:38;;;;;;;4.12;2.60;;;;;;;8.80;79.51;97840.58;1782145;80;21075;-45
2022/10/03 01:23:33;;;;;;;3.00;2.60;;;;;;;8.79;79.64;97846.36;1782079;80;21984;-45
2022/10/03 01:26:08;;;;;;;4.40;2.30;;;;;;;8.75;79.69;97838.25;1744816;82;21531;-45
2022/10/03 01:31:52;;;;;;;3.58;2.98;;;;;;;8.78;79.29;97841.53;1782185;80;21527;-45
2022/10/03 01:34:45;;;;;;;3.75;2.70;;;;;;;8.77;79.40;97832.45;1782057;80;21028;-44
2022/10/03 01:37:44;;;;;;;3.05;2.72;;;;;;;8.74;79.39;97842.11;1744798;82;21838;-44
2022/10/03 01:40:22;;;;;;;4.20;3.15;;;;;;;8.77;79.13;97846.73;1781984;80;20973;-45
2022/10/03 01:43:03;;;;;;;4.50;2.92;;;;;;;8.81;79.08;97838.66;1782105;80;20960;-45
2022/10/03 01:46:01;;;;;;;3.70;3.00;;;;;;;8.80;78.87;97831.12;1781755;80;21008;-45
2022/10/03 01:48:54;;;;;;;4.37;2.67;;;;;;;8.79;78.96;97832.84;1781957;80;21521;-44
2022/10/03 01:51:47;;;;;;;4.75;2.80;;;;;;;8.82;78.85;97838.25;1779682;80;22526;-45
2022/10/03 01:54:36;;;;;;;3.45;2.72;;;;;;;8.88;78.64;97843.47;1717028;81;20965;-45
2022/10/03 01:57:20;;;;;;;5.50;3.17;;;;;;;8.87;78.38;97839.22;1766519;81;21005;-45
2022/10/03 01:59:56;;;;;;;3.00;2.62;;;;;;;8.82;78.39;97827.44;1766610;81;21031;-45
2022/10/03 02:03:07;;;;;;;2.75;2.20;;;;;;;8.85;78.34;97824.56;1766531;81;21447;-45
2022/10/03 02:05:59;;;;;;;2.95;2.20;;;;;;;8.89;77.66;97823.98;1735476;81;21020;-45
2022/10/03 02:08:43;;;;;;;2.87;2.20;;;;;;;8.82;77.48;97822.03;1766485;81;21088;-45
2022/10/03 02:11:10;;;;;;;3.05;1.92;;;;;;;8.75;77.66;97832.08;1766329;81;20914;-45
2022/10/03 02:13:47;;;;;;;3.98;2.30;;;;;;;8.75;77.73;97832.84;1739082;81;20957;-44
2022/10/03 02:16:42;;;;;;;3.05;2.10;;;;;;;8.79;77.48;97820.11;1738568;81;21041;-44
2022/10/03 02:19:29;;;;;;;3.62;2.10;;;;;;;8.78;77.43;97821.84;1717330;83;21323;-44
2022/10/03 02:21:57;;;;;;;3.77;2.25;;;;;;;8.75;77.59;97814.52;1766496;81;21460;-45
2022/10/03 02:24:34;;;;;;;3.90;2.20;;;;;;;8.74;77.59;97823.19;1766875;81;21033;-45
2022/10/03 02:27:37;;;;;;;3.75;2.22;;;;;;;8.81;77.50;97821.83;1766326;81;21856;-44
2022/10/03 02:30:12;;;;;;;2.20;2.00;;;;;;;8.83;77.38;97822.81;1762800;81;21034;-44
2022/10/03 02:33:22;;;;;;;2.92;2.10;;;;;;;8.77;77.43;97833.22;1716203;81;21128;-44
2022/10/03 02:36:03;;;;;;;3.35;2.10;;;;;;;8.77;77.61;97825.11;1766482;81;21504;-44
2022/10/03 02:38:58;;;;;;;4.67;2.50;;;;;;;8.83;77.42;97825.52;1766568;81;21071;-44
2022/10/03 02:42:01;;;;;;;5.42;2.50;;;;;;;8.85;77.25;97823.98;1766455;81;21003;-45
2022/10/03 02:45:02;;;;;;;4.37;2.00;;;;;;;8.81;77.37;97818.39;1607671;86;21534;-45
2022/10/03 02:47:50;;;;;;;2.77;1.95;;;;;;;8.82;77.47;97822.03;1766201;81;23140;-45
2022/10/03 02:50:32;;;;;;;3.92;2.40;;;;;;;8.88;77.52;97823.20;1766146;81;21539;-45
2022/10/03 02:53:24;;;;;;;5.37;2.80;;;;;;;8.86;77.43;97822.80;1776671;80;21079;-45
2022/10/03 02:56:15;;;;;;;6.62;2.70;;;;;;;8.82;77.16;97822.03;1781560;80;21064;-45
2022/10/03 02:59:19;;;;;;;6.05;3.00;;;;;;;8.81;77.38;97821.83;1782177;80;21531;-45
2022/10/03 03:02:34;;;;;;;6.25;3.67;;;;;;;8.87;77.56;97827.63;1782011;80;21295;-44
2022/10/03 03:05:23;;;;;;;5.05;3.90;;;;;;;8.87;77.82;97824.36;1782031;80;21005;-45
2022/10/03 03:08:18;;;;;;;4.30;3.12;;;;;;;8.81;78.10;97819.73;1782532;80;21071;-45
2022/10/03 03:11:27;;;;;;;4.35;3.50;;;;;;;8.83;78.32;97822.23;1744622;82;21023;-45
2022/10/03 03:14:38;;;;;;;5.12;3.95;;;;;;;8.82;78.42;97819.33;1717365;83;21055;-45
2022/10/03 03:17:38;;;;;;;5.72;4.03;;;;;;;8.76;78.86;97816.84;1745395;82;21141;-45
2022/10/03 03:20:23;;;;;;;;;;;;;;;8.69;79.21;97814.11;1747858;82;20979;-44
2022/10/03 03:23:17;;;;;;;4.70;3.60;;;;;;;8.76;79.49;97811.44;1714213;83;20136;-45
2022/10/03 03:25:55;;;;;;;5.95;3.80;;;;;;;8.74;79.74;97811.03;1716235;83;21102;-45
2022/10/03 03:29:14;;;;;;;5.50;4.33;;;;;;;8.77;80.00;97802.72;1715443;83;21102;-45
2022/10/03 03:32:17;;;;;;;4.35;3.90;;;;;;;8.78;80.10;97801.00;1717001;83;23150;-45
2022/10/03 03:35:10;;;;;;;4.40;3.37;;;;;;;8.82;80.08;97807.17;1745181;82;21278;-44
2022/10/03 03:38:34;;;;;;;6.10;4.15;;;;;;;8.86;80.06;97800.44;1745054;82;20971;-45
2022/10/03 03:41:33;;;;;;;4.65;4.20;;;;;;;8.88;80.25;97793.48;1744996;82;21094;-45
2022/10/03 03:44:14;;;;;;;5.17;3.80;;;;;;;8.88;80.36;97796.18;1745148;82;21607;-45
2022/10/03 03:47:15;;;;;;;8.00;3.50;;;;;;;8.91;80.23;97798.09;1745100;82;21207;-45
2022/10/03 03:50:14;;;;;;;3.62;3.33;;;;;;;9.02;80.22;97792.13;1745136;82;21106;-45
2022/10/03 03:53:20;;;;;;;4.85;3.83;;;;;;;9.09;80.15;97787.30;1738286;82;20905;-45
2022/10/03 03:56:02;;;;;;;5.03;3.67;;;;;;;9.10;80.13;97781.48;1729405;83;20997;-45
2022/10/03 03:58:50;;;;;;;4.35;3.42;;;;;;;9.20;79.90;97774.53;1710653;83;21588;-45
2022/10/03 04:01:36;;;;;;;4.35;3.52;;;;;;;9.30;79.62;97779.15;1728873;82;23257;-45
2022/10/03 04:04:41;;;;;;;3.50;3.20;;;;;;;9.35;79.58;97778.76;1720709;83;21519;-45
2022/10/03 04:07:28;;;;;;;3.33;2.58;;;;;;;9.08;79.54;97731.11;1728948;82;21545;-45
2022/10/03 04:10:00;;;;;;;4.75;2.92;;;;;;;9.41;79.40;97771.02;1729446;82;21040;-45
2022/10/03 04:13:12;;;;;;;3.83;2.92;;;;;;;9.49;79.41;97768.48;1729221;82;21099;-45
2022/10/03 04:15:53;;;;;;;6.28;3.27;;;;;;;9.56;79.42;97760.36;1769011;81;21194;-45
2022/10/03 04:21:32;;;;;;;;;;;;;;;9.55;79.24;97744.70;1771679;81;20962;-45
2022/10/03 04:24:56;;;;;;;5.60;3.00;;;;;;;9.86;78.97;97764.71;1769029;81;20168;-45
2022/10/03 04:28:09;;;;;;;4.92;3.00;;;;;;;9.84;79.11;97771.66;1768777;81;21053;-45
2022/10/03 04:30:54;;;;;;;6.90;2.65;;;;;;;9.79;79.27;97766.66;1768583;80;21288;-45
2022/10/03 04:33:45;;;;;;;2.87;2.17;;;;;;;9.85;79.47;97758.33;1767820;80;21623;-45
2022/10/03 04:36:54;;;;;;;3.92;2.15;;;;;;;9.90;79.71;97753.28;1768564;81;20926;-44
2022/10/03 04:39:46;;;;;;;6.58;2.17;;;;;;;9.89;80.49;97759.86;1768543;81;21061;-44
2022/10/03 04:42:51;;;;;;;4.20;2.02;;;;;;;9.88;81.15;97748.06;1768676;81;21563;-44
2022/10/03 04:45:40;;;;;;;5.72;1.80;;;;;;;9.96;81.49;97752.30;1768889;81;21219;-44
2022/10/03 04:48:32;;;;;;;5.28;2.15;;;;;;;10.07;81.75;97752.25;1767775;80;20973;-44
2022/10/03 04:51:19;;;;;;;6.85;1.67;;;;;;;10.11;81.76;97744.87;1768184;80;21017;-44
2022/10/03 04:53:55;;;;;;;5.70;1.80;;;;;;;9.89;81.55;97698.17;1768634;81;20898;-44
2022/10/03 04:56:43;;;;;;;7.72;2.20;;;;;;;10.26;81.37;97738.25;1763711;81;21017;-45
2022/10/03 04:59:31;;;;;;;4.70;1.92;;;;;;;10.32;81.09;97745.54;1768768;81;21586;-45
2022/10/03 05:02:11;;;;;;;8.28;1.70;;;;;;;10.33;80.98;97746.31;1716524;80;21022;-45
2022/10/03 05:04:45;;;;;;;4.72;1.77;;;;;;;10.35;80.26;97746.12;1768710;81;21811;-45
2022/10/03 05:07:54;;;;;;;4.50;1.70;;;;;;;10.46;80.36;97755.51;1768758;81;21006;-45
2022/10/03 05:10:57;;;;;;;3.87;2.00;;;;;;;10.45;80.23;97751.28;1726381;82;21112;-45
2022/10/03 05:14:02;;;;;;;3.47;2.00;;;;;;;10.49;80.08;97750.67;1726766;82;21142;-45
2022/10/03 05:16:41;;;;;;;5.50;1.92;;;;;;;10.53;80.12;97750.05;1763134;80;21594;-45
2022/10/03 05:19:44;;;;;;;4.03;1.80;;;;;;;10.50;79.67;97751.44;1769627;81;20985;-45
2022/10/03 05:22:49;;;;;;;7.58;2.20;;;;;;;10.52;79.58;97756.64;1768801;81;21014;-45
2022/10/03 05:25:52;;;;;;;4.22;1.77;;;;;;;10.58;79.39;97762.41;1768711;81;21002;-45
2022/10/03 05:28:39;;;;;;;;;;;;;;;10.57;79.18;97756.22;1771022;80;21238;-44
2022/10/03 05:31:32;;;;;;;4.87;1.97;;;;;;;10.56;78.95;97762.80;1769060;80;20496;-45
2022/10/03 05:34:37;;;;;;;5.05;1.92;;;;;;;10.57;79.04;97753.50;1762302;81;21253;-45
2022/10/03 05:37:49;;;;;;;5.22;2.10;;;;;;;10.63;78.57;97760.05;1742774;80;20994;-45
2022/10/03 05:40:34;;;;;;;5.12;2.00;;;;;;;10.62;77.41;97758.50;1768627;81;21037;-44
2022/10/03 05:43:12;;;;;;;4.00;1.70;;;;;;;10.67;77.52;97772.21;1768717;81;21926;-44
2022/10/03 05:45:50;;;;;;;9.10;2.12;;;;;;;10.68;76.92;97774.53;1768753;81;20977;-44
2022/10/03 05:48:31;;;;;;;5.92;2.08;;;;;;;10.67;76.01;97763.50;1768551;80;21501;-44
2022/10/03 05:51:35;;;;;;;3.55;1.62;;;;;;;10.66;76.33;97772.80;1768591;81;21627;-45
2022/10/03 05:54:29;;;;;;;4.37;1.60;;;;;;;10.68;75.66;97781.31;1750487;80;21009;-44
2022/10/03 05:57:26;;;;;;;5.78;1.67;;;;;;;10.71;75.31;97772.38;1740724;82;21135;-45
2022/10/03 06:00:10;;;;;;;3.75;1.40;;;;;;;10.68;75.15;97766.41;1739904;82;21052;-45
2022/10/03 06:02:55;;;;;;;3.40;1.82;;;;;;;10.72;75.46;97774.50;1740711;82;21029;-45
2022/10/03 06:05:37;;;;;;;4.78;1.60;;;;;;;10.80;74.90;97778.69;1740561;82;21590;-45
2022/10/03 06:08:19;;;;;;;4.80;1.55;;;;;;;10.81;74.41;97774.23;1740515;82;21033;-45
2022/10/03 06:11:11;;;;;;;4.22;1.75;;;;;;;10.82;74.08;97779.84;1740697;82;21200;-45
2022/10/03 06:14:00;;;;;;;3.85;1.37;;;;;;;10.91;73.86;97784.81;1740734;82;20926;-45
2022/10/03 06:16:41;;;;;;;4.00;1.50;;;;;;;11.00;73.20;97781.05;1740740;82;20946;-45
2022/10/03 06:19:39;;;;;;;5.97;1.82;;;;;;;11.01;73.17;97789.97;1740689;82;20926;-45
2022/10/03 06:22:26;;;;;;;6.25;1.60;;;;;;;11.03;73.35;97795.19;1740176;82;21006;-45
2022/10/03 06:25:04;;;;;;;5.42;1.80;;;;;;;11.10;72.65;97802.48;1740542;82;21234;-45
2022/10/03 06:28:02;;;;;;;5.40;1.60;;;;;;;11.19;73.13;97810.34;1740530;82;21518;-45
2022/10/03 06:30:58;;;;;;;3.72;1.45;;;;;;;11.18;72.80;97803.98;1740604;82;21089;-45
2022/10/03 06:33:54;;;;;;;4.83;1.62;;;;;;;11.18;72.49;97798.55;1708116;82;21069;-44
2022/10/03 06:37:17;;;;;;;5.33;1.85;;;;;;;11.23;72.11;97804.91;1740301;82;21740;-44
2022/10/03 06:40:30;;;;;;;6.40;1.70;;;;;;;11.25;71.49;97812.03;1740515;82;21212;-44
2022/10/03 06:43:48;;;;;;;4.03;1.60;;;;;;;11.19;71.11;97812.28;1706461;82;21614;-44
2022/10/03 06:46:44;;;;;;;4.55;1.42;;;;;;;11.21;71.34;97820.21;1740354;82;21077;-44
2022/10/03 06:49:42;;;;;;;4.30;1.70;;;;;;;11.22;70.86;97820.98;1709214;82;21016;-45
2022/10/03 06:52:41;;;;;;;4.75;2.00;;;;;;;11.22;70.25;97825.06;1740430;82;21531;-45
2022/10/03 06:55:30;;;;;;;3.93;1.60;;;;;;;11.21;70.53;97813.43;1740216;80;21243;-45
2022/10/03 06:58:26;;;;;;;7.78;2.08;;;;;;;11.20;70.13;97821.37;1740458;82;20945;-45
2022/10/03 07:01:41;;;;;;;4.65;2.00;;;;;;;11.27;70.41;97828.11;1740564;82;21037;-45
2022/10/03 07:04:28;;;;;;;4.80;1.75;;;;;;;11.24;70.51;97839.75;1740730;82;21520;-45
2022/10/03 07:09:00;;;;;;;5.58;1.55;;;;;;;11.27;71.78;97817.84;1779042;79;22651;-44
2022/10/03 07:12:06;;;;;;;6.95;2.40;;;;;;;11.27;71.67;97815.13;1738874;82;21001;-44
2022/10/03 07:15:16;;;;;;;3.40;1.70;;;;;;;11.37;71.69;97829.19;1738480;82;20909;-44
2022/10/03 07:18:05;;;;;;;5.08;1.70;;;;;;;11.37;72.03;97827.84;1738772;82;21018;-44
2022/10/03 07:21:24;;;;;;;5.05;1.90;;;;;;;11.44;72.09;97826.40;1738428;82;21500;-44
2022/10/03 07:24:33;;;;;;;3.67;1.75;;;;;;;11.51;72.11;97818.78;1738717;82;20978;-44
2022/10/03 07:27:37;;;;;;;5.80;2.47;;;;;;;11.50;71.65;97818.02;1738771;82;20967;-44
2022/10/03 07:30:20;;;;;;;6.40;2.15;;;;;;;11.47;71.70;97813.41;1738402;82;21189;-44
2022/10/03 07:33:23;;;;;;;6.33;2.08;;;;;;;11.51;71.23;97827.70;1738267;82;21018;-44
2022/10/03 07:39:58;;;;;;;3.50;1.70;;;;;;;11.69;70.64;97810.64;1738658;82;21524;-44
2022/10/03 07:42:54;;;;;;;5.35;1.95;;;;;;;11.70;69.77;97817.62;1738363;82;21054;-44
2022/10/03 07:45:46;;;;;;;6.58;2.55;;;;;;;11.80;70.10;97815.22;1738537;82;21135;-44
2022/10/03 07:49:07;;;;;;;7.78;2.15;;;;;;;11.91;69.04;97813.17;1733402;82;20951;-44
2022/10/03 07:52:11;;;;;;;4.92;2.45;;;;;;;11.93;68.58;97816.23;1738608;82;21058;-44
2022/10/03 07:55:15;;;;;;;3.55;1.75;;;;;;;11.89;68.95;97810.84;1712982;82;21073;-44
2022/10/03 07:58:06;;;;;;;6.08;2.20;;;;;;;11.95;68.68;97811.17;1738346;82;21026;-44
2022/10/03 08:00:41;;;;;;;6.35;2.42;;;;;;;12.04;68.17;97819.61;1738507;82;21271;-44
2022/10/03 08:03:32;;;;;;;6.37;2.62;;;;;;;12.11;68.20;97820.86;1738478;82;21581;-44
2022/10/03 08:06:16;;;;;;;4.37;1.57;;;;;;;12.16;67.94;97813.63;1738889;82;21542;-44
2022/10/03 08:09:14;;;;;;;5.10;1.82;;;;;;;12.25;68.08;97824.77;1754649;81;20983;-44
2022/10/03 08:12:07;;;;;;;4.80;1.85;;;;;;;12.37;67.55;97823.46;1754908;81;21046;-44
2022/10/03 08:15:03;;;;;;;5.80;1.77;;;;;;;12.31;66.40;97827.80;1754696;81;21134;-44
2022/10/03 08:17:42;;;;;;;7.10;1.82;;;;;;;12.22;66.42;97840.53;1752718;81;20959;-44
2022/10/03 08:20:50;;;;;;;6.53;2.10;;;;;;;12.15;66.83;97826.44;1753912;81;20955;-44
2022/10/03 08:24:00;;;;;;;6.50;2.30;;;;;;;12.10;66.54;97816.62;1753858;81;21026;-44
2022/10/03 08:26:48;;;;;;;3.85;2.05;;;;;;;12.09;66.54;97826.72;1754042;81;21042;-44
2022/10/03 08:29:36;;;;;;;4.97;1.85;;;;;;;12.06;66.86;97834.89;1753739;81;21187;-44
2022/10/03 08:32:34;;;;;;;5.55;2.52;;;;;;;12.00;66.68;97831.10;1753265;81;20938;-44
2022/10/03 08:35:37;;;;;;;7.97;2.17;;;;;;;11.98;66.74;97838.29;1753968;81;21022;-44
2022/10/03 08:38:38;;;;;;;3.58;1.80;;;;;;;12.04;66.58;97841.33;1753666;81;20966;-44
2022/10/03 08:41:36;;;;;;;9.20;1.60;;;;;;;12.08;66.44;97840.70;1750769;81;21066;-44
2022/10/03 08:44:38;;;;;;;5.22;2.17;;;;;;;12.10;66.40;97843.18;1749401;82;21146;-44
2022/10/03 08:47:35;;;;;;;3.90;1.80;;;;;;;12.15;65.98;97848.78;1749264;82;21066;-44
2022/10/03 08:50:29;;;;;;;3.67;1.80;;;;;;;12.19;64.80;97844.07;1749059;82;21074;-44
2022/10/03 08:53:30;;;;;;;5.75;1.55;;;;;;;12.29;65.21;97844.53;1748990;82;21397;-44
2022/10/03 08:56:17;;;;;;;5.58;1.80;;;;;;;12.40;65.75;97844.37;1749497;82;21043;-44
2022/10/03 08:59:05;;;;;;;7.15;2.08;;;;;;;12.51;64.32;97837.63;1719045;82;21880;-44
2022/10/03 09:01:51;;;;;;;6.70;2.05;;;;;;;12.55;63.45;97854.66;1749577;82;20967;-45
2022/10/03 09:04:51;;;;;;;4.05;1.52;;;;;;;12.59;64.17;97846.45;1749177;81;20896;-44
2022/10/03 09:07:41;;;;;;;5.28;1.70;;;;;;;12.60;63.44;97841.20;1746260;82;21205;-44
2022/10/03 09:10:57;;;;;;;3.58;1.60;;;;;;;12.55;63.75;97836.99;1741535;82;21047;-44
2022/10/03 09:14:12;;;;;;;5.30;1.70;;;;;;;12.53;62.86;97844.80;1741511;82;21141;-44
2022/10/03 09:17:11;;;;;;;4.37;1.67;;;;;;;12.54;63.81;97839.52;1741588;82;21545;-44
2022/10/03 09:20:07;;;;;;;3.65;1.60;;;;;;;12.61;63.72;97842.75;1741561;82;21014;-44
2022/10/03 09:23:15;;;;;;;5.75;1.70;;;;;;;12.72;62.77;97839.89;1742230;82;21093;-44
2022/10/03 09:25:56;;;;;;;5.28;1.80;;;;;;;12.82;61.94;97838.38;1706933;83;21029;-44
2022/10/03 09:28:34;;;;;;;3.50;1.72;;;;;;;12.81;61.29;97833.34;1742738;81;21929;-45
2022/10/03 09:31:27;;;;;;;6.37;1.60;;;;;;;12.83;60.95;97848.67;1706886;83;21484;-44
2022/10/03 09:34:14;;;;;;;4.83;1.85;;;;;;;12.77;60.96;97848.95;1707119;84;20977;-44
2022/10/03 09:37:21;;;;;;;5.10;1.82;;;;;;;12.78;62.05;97846.41;1707193;84;20909;-44
2022/10/03 09:40:35;;;;;;;3.75;1.80;;;;;;;12.84;62.04;97850.19;1742744;82;21014;-44
2022/10/03 09:43:26;;;;;;;5.85;1.60;;;;;;;12.98;61.58;97855.42;1706288;84;22006;-44
2022/10/03 09:46:20;;;;;;;5.05;1.80;;;;;;;13.08;59.85;97845.73;1742855;82;21479;-44
2022/10/03 09:48:55;;;;;;;3.33;1.60;;;;;;;13.25;59.45;97852.72;1707188;84;21026;-44
2022/10/03 09:51:30;;;;;;;4.05;1.87;;;;;;;13.45;59.35;97842.08;1742602;81;20950;-44
2022/10/03 09:54:22;;;;;;;7.47;1.42;;;;;;;13.65;58.33;97849.52;1707283;83;21870;-44
2022/10/03 09:57:10;;;;;;;2.40;1.42;;;;;;;13.73;57.84;97850.92;1700893;84;21558;-44
2022/10/03 09:59:56;;;;;;;3.83;1.60;;;;;;;13.77;58.24;97844.81;1707069;84;20993;-44
2022/10/03 10:03:04;;;;;;;3.83;1.62;;;;;;;13.83;58.30;97845.88;1697289;84;21485;-44
2022/10/03 10:06:07;;;;;;;3.20;1.55;;;;;;;13.79;57.99;97850.63;1743047;82;20927;-45
2022/10/03 10:08:59;;;;;;;2.45;1.30;;;;;;;13.69;57.62;97857.03;1752784;81;21068;-44
2022/10/03 10:11:53;;;;;;;3.02;1.50;;;;;;;13.55;58.33;97849.89;1720450;83;21153;-44
2022/10/03 10:14:37;;;;;;;4.15;1.37;;;;;;;13.41;58.36;97852.23;1719805;83;21534;-45
2022/10/03 10:17:34;;;;;;;4.75;1.50;;;;;;;13.29;59.23;97867.80;1714892;83;20956;-44
2022/10/03 10:20:35;;;;;;;4.60;1.70;;;;;;;13.19;59.22;97858.44;1720515;83;21060;-45
2022/10/03 10:23:27;;;;;;;3.65;1.55;;;;;;;13.15;58.83;97852.29;1720008;83;21040;-44
2022/10/03 10:26:11;;;;;;;4.37;1.60;;;;;;;13.17;59.18;97857.48;1665023;83;21086;-45
2022/10/03 10:29:01;;;;;;;3.85;1.30;;;;;;;13.20;59.35;97840.35;1719674;83;20936;-44
2022/10/03 10:31:55;;;;;;;2.37;1.15;;;;;;;13.23;58.83;97860.51;1720206;83;20952;-44
2022/10/03 10:34:39;;;;;;;3.70;1.30;;;;;;;13.22;59.13;97858.38;1676970;83;21000;-45
2022/10/03 10:37:32;;;;;;;3.58;1.52;;;;;;;13.19;59.88;97846.97;1682247;83;21036;-44
2022/10/03 10:40:37;;;;;;;2.08;1.20;;;;;;;13.17;61.51;97883.95;1720149;83;23169;-44
2022/10/03 10:43:48;;;;;;;2.50;1.40;;;;;;;13.18;63.02;97877.30;1720134;83;20948;-44
2022/10/03 10:46:57;;;;;;;2.55;1.32;;;;;;;13.09;63.73;97871.00;1720161;83;21007;-44
2022/10/03 10:49:48;;;;;;;5.30;1.60;;;;;;;13.16;64.27;97870.94;1720504;83;21024;-44
2022/10/03 10:52:40;;;;;;;3.08;1.50;;;;;;;13.36;63.70;97872.38;1720191;83;21315;-44
2022/10/03 10:55:37;;;;;;;5.85;1.70;;;;;;;13.51;63.63;97871.55;1698967;83;21234;-44
2022/10/03 10:58:56;;;;;;;4.67;1.37;;;;;;;13.49;61.85;97867.28;1719930;83;21582;-44
2022/10/03 11:02:07;;;;;;;5.05;1.67;;;;;;;13.38;62.38;97883.60;1690087;83;21545;-45
2022/10/03 11:05:13;;;;;;;3.90;1.95;;;;;;;13.19;63.50;97880.21;1696630;83;21406;-44
2022/10/03 11:08:22;;;;;;;3.22;1.32;;;;;;;12.98;64.05;97873.09;1718989;83;21033;-45
2022/10/03 11:11:23;;;;;;;3.12;1.60;;;;;;;12.92;64.95;97885.06;1715113;83;21260;-44
2022/10/03 11:14:46;;;;;;;4.50;1.60;;;;;;;12.87;64.11;97869.78;1624326;88;21044;-44
2022/10/03 11:17:30;;;;;;;5.78;1.72;;;;;;;12.82;63.82;97864.22;1751202;82;21515;-44
2022/10/03 11:20:35;;;;;;;2.77;1.40;;;;;;;12.81;64.51;97864.62;1750975;82;21531;-44
2022/10/03 11:23:23;;;;;;;4.78;1.50;;;;;;;12.80;63.70;97870.64;1751203;82;20986;-44
2022/10/03 11:26:07;;;;;;;4.28;2.12;;;;;;;12.85;64.09;97870.77;1714801;83;23342;-45
2022/10/03 11:29:07;;;;;;;4.78;1.80;;;;;;;12.89;64.43;97879.06;1704268;83;21514;-45
2022/10/03 11:31:45;;;;;;;3.67;1.77;;;;;;;12.87;64.65;97880.66;1750971;82;21530;-45
2022/10/03 11:34:49;;;;;;;5.20;1.67;;;;;;;12.82;63.46;97871.60;1714558;83;21124;-45
2022/10/03 11:37:36;;;;;;;4.85;1.70;;;;;;;12.79;64.08;97868.32;1714773;83;21080;-45
2022/10/03 11:40:45;;;;;;;3.12;1.30;;;;;;;12.78;64.90;97863.47;1706202;83;21527;-45
2022/10/03 11:43:35;;;;;;;3.72;1.45;;;;;;;12.89;64.70;97866.81;1750270;81;21559;-44
2022/10/03 11:46:20;;;;;;;4.00;1.80;;;;;;;13.09;63.38;97869.64;1693982;83;21051;-44
2022/10/03 11:49:13;;;;;;;7.95;1.80;;;;;;;13.16;62.57;97864.72;1750926;82;20997;-44
2022/10/03 11:52:02;;;;;;;6.33;1.90;;;;;;;13.19;61.91;97860.58;1678688;85;21001;-44
2022/10/03 11:54:33;;;;;;;8.03;1.80;;;;;;;13.19;61.26;97863.30;1686087;85;23199;-44
2022/10/03 11:57:16;;;;;;;6.78;2.02;;;;;;;13.17;60.61;97871.09;1721042;83;21602;-44
2022/10/03 11:59:52;;;;;;;5.22;1.80;;;;;;;13.22;60.91;97856.24;1686258;85;21041;-44
2022/10/03 12:02:30;;;;;;;4.47;1.77;;;;;;;13.26;60.57;97855.03;1721179;83;21569;-44
2022/10/03 12:05:20;;;;;;;3.65;1.60;;;;;;;13.28;60.13;97866.26;1721041;82;21028;-44
2022/10/03 12:11:28;;;;;;;3.02;1.50;;;;;;;13.21;60.34;97871.83;1678833;85;20933;-44
2022/10/03 12:14:15;;;;;;;5.35;1.70;;;;;;;13.03;61.39;97879.44;1652997;85;21100;-44
2022/10/03 12:17:06;;;;;;;7.25;1.65;;;;;;;12.88;63.26;97887.62;1713479;83;21073;-45
2022/10/03 12:20:09;;;;;;;4.78;1.75;;;;;;;12.80;65.17;97892.40;1678923;85;21103;-45
2022/10/03 12:22:59;;;;;;;4.85;1.70;;;;;;;12.70;65.24;97878.35;1713247;82;21144;-45
2022/10/03 12:25:33;;;;;;;3.05;1.57;;;;;;;12.69;65.04;97890.98;1703869;83;21053;-45
2022/10/03 12:28:24;;;;;;;2.00;1.32;;;;;;;12.76;64.85;97880.03;1679021;85;21023;-45
2022/10/03 12:31:00;;;;;;;;;;;;;;;12.93;64.40;97881.72;1716134;83;21033;-44
2022/10/03 12:34:13;;;;;;;4.92;1.65;;;;;;;13.00;62.26;97871.52;1713455;83;20163;-45
2022/10/03 12:37:06;;;;;;;8.48;1.67;;;;;;;12.98;62.41;97878.54;1678830;85;21134;-44
2022/10/03 12:40:05;;;;;;;7.40;1.60;;;;;;;13.02;60.72;97869.14;1713304;83;21069;-44
2022/10/03 12:42:56;;;;;;;3.75;1.72;;;;;;;13.06;60.85;97866.39;1678954;85;20992;-44
2022/10/03 12:45:44;;;;;;;2.33;1.50;;;;;;;13.07;60.08;97864.60;1713081;82;21290;-45
2022/10/03 12:48:54;;;;;;;4.20;1.55;;;;;;;13.07;60.36;97867.91;1678838;85;21005;-44
2022/10/03 12:51:41;;;;;;;4.12;1.50;;;;;;;12.98;61.53;97891.55;1713530;83;21958;-44
2022/10/03 12:54:39;;;;;;;5.72;1.60;;;;;;;12.82;64.23;97896.08;1678680;85;21522;-44
2022/10/03 12:57:39;;;;;;;2.98;1.40;;;;;;;12.59;66.43;97888.00;1713422;83;20973;-44
2022/10/03 13:00:23;;;;;;;4.28;1.62;;;;;;;12.30;66.14;97892.83;1648089;86;21054;-44
2022/10/03 13:03:16;;;;;;;4.22;1.35;;;;;;;12.12;67.76;97876.73;1713630;83;21104;-44
2022/10/03 13:06:13;;;;;;;4.12;1.27;;;;;;;12.13;69.00;97879.06;1691095;82;21235;-44
2022/10/03 13:08:54;;;;;;;4.35;1.57;;;;;;;12.29;69.18;97881.22;1717835;82;21041;-44
2022/10/03 13:12:00;;;;;;;3.83;1.50;;;;;;;12.44;68.83;97877.73;1702000;82;20994;-44
2022/10/03 13:15:23;;;;;;;4.67;1.52;;;;;;;12.55;69.15;97866.89;1691324;84;21087;-44
2022/10/03 13:18:08;;;;;;;4.10;1.60;;;;;;;12.62;68.87;97866.81;1691371;84;21463;-44
2022/10/03 13:20:42;;;;;;;4.60;1.82;;;;;;;12.64;69.13;97872.59;1691139;84;21254;-44
2022/10/03 13:23:29;;;;;;;3.40;1.80;;;;;;;12.65;68.92;97873.38;1691699;84;21095;-45
2022/10/03 13:26:02;;;;;;;3.45;1.85;;;;;;;12.61;68.79;97865.27;1691579;84;20952;-44
2022/10/03 13:28:52;;;;;;;2.92;1.45;;;;;;;12.55;69.81;97862.82;1691379;84;21567;-45
2022/10/03 13:31:34;;;;;;;3.35;1.57;;;;;;;12.55;69.47;97860.69;1691807;84;21807;-45
2022/10/03 13:34:05;;;;;;;3.40;1.55;;;;;;;12.56;68.64;97867.08;1690651;84;21103;-44
2022/10/03 13:36:49;;;;;;;4.17;1.95;;;;;;;12.56;68.30;97864.36;1690494;84;21028;-44
2022/10/03 13:39:30;;;;;;;3.92;1.65;;;;;;;12.56;68.09;97863.59;1691328;84;21087;-45
2022/10/03 13:42:32;;;;;;;4.17;2.00;;;;;;;12.53;68.28;97863.06;1690950;84;20991;-45
2022/10/03 13:45:06;;;;;;;4.75;1.80;;;;;;;12.49;68.03;97856.29;1691496;84;21025;-44
2022/10/03 13:47:54;;;;;;;4.47;1.92;;;;;;;12.52;67.41;97848.70;1665601;84;21077;-44
2022/10/03 13:50:47;;;;;;;3.77;2.17;;;;;;;12.58;67.06;97853.09;1687812;84;20995;-44
2022/10/03 13:53:36;;;;;;;3.47;1.75;;;;;;;12.57;66.73;97844.16;1691330;84;21028;-44